sensor_id;sensor_type;location;lat;lon;timestamp;P1;durP1;ratioP1;P2;durP2;ratioP2
56242;SDS011;42155;53.096;23.226;2023-12-29T00:01:28;17.50;;;8.40;;
56242;SDS011;42155;53.096;23.226;2023-12-29T00:03:30;18.38;;;8.85;;
56242;SDS011;42155;53.096;23.226;2023-12-29T00:05:30;18.15;;;8.35;;
56242;SDS011;42155;53.096;23.226;2023-12-29T00:07:31;17.80;;;8.43;;
56242;SDS011;42155;53.096;23.226;2023-12-29T00:09:31;16.77;;;8.68;;
56242;SDS011;42155;53.096;23.226;2023-12-29T00:11:31;17.77;;;8.43;;
56242;SDS011;42155;53.096;23.226;2023-12-29T00:13:32;17.02;;;8.43;;
56242;SDS011;42155;53.096;23.226;2023-12-29T00:15:32;16.73;;;7.97;;
56242;SDS011;42155;53.096;23.226;2023-12-29T00:17:32;17.55;;;8.43;;
56242;SDS011;42155;53.096;23.226;2023-12-29T00:19:33;18.88;;;8.70;;
56242;SDS011;42155;53.096;23.226;2023-12-29T00:21:33;16.80;;;8.73;;
56242;SDS011;42155;53.096;23.226;2023-12-29T00:23:34;19.10;;;8.80;;
56242;SDS011;42155;53.096;23.226;2023-12-29T00:25:37;15.43;;;8.13;;
56242;SDS011;42155;53.096;23.226;2023-12-29T00:27:38;20.60;;;8.63;;
56242;SDS011;42155;53.096;23.226;2023-12-29T00:29:39;17.17;;;8.18;;
56242;SDS011;42155;53.096;23.226;2023-12-29T00:31:39;18.23;;;8.95;;
56242;SDS011;42155;53.096;23.226;2023-12-29T00:33:39;19.13;;;8.95;;
56242;SDS011;42155;53.096;23.226;2023-12-29T00:35:40;19.40;;;9.25;;
56242;SDS011;42155;53.096;23.226;2023-12-29T00:37:40;17.02;;;8.00;;
56242;SDS011;42155;53.096;23.226;2023-12-29T00:39:40;17.15;;;7.90;;
56242;SDS011;42155;53.096;23.226;2023-12-29T00:41:41;15.45;;;8.45;;
56242;SDS011;42155;53.096;23.226;2023-12-29T00:43:41;18.35;;;8.20;;
56242;SDS011;42155;53.096;23.226;2023-12-29T00:45:42;17.25;;;8.43;;
56242;SDS011;42155;53.096;23.226;2023-12-29T00:47:42;17.73;;;8.13;;
56242;SDS011;42155;53.096;23.226;2023-12-29T00:49:42;16.25;;;7.82;;
56242;SDS011;42155;53.096;23.226;2023-12-29T00:51:43;16.88;;;8.52;;
56242;SDS011;42155;53.096;23.226;2023-12-29T00:53:43;15.93;;;8.30;;
56242;SDS011;42155;53.096;23.226;2023-12-29T00:55:44;16.90;;;7.93;;
56242;SDS011;42155;53.096;23.226;2023-12-29T00:57:44;17.50;;;8.27;;
56242;SDS011;42155;53.096;23.226;2023-12-29T00:59:46;16.73;;;7.53;;
56242;SDS011;42155;53.096;23.226;2023-12-29T01:01:47;20.08;;;9.30;;
56242;SDS011;42155;53.096;23.226;2023-12-29T01:03:47;16.45;;;7.93;;
56242;SDS011;42155;53.096;23.226;2023-12-29T01:05:48;17.10;;;8.55;;
56242;SDS011;42155;53.096;23.226;2023-12-29T01:07:52;19.33;;;8.25;;
56242;SDS011;42155;53.096;23.226;2023-12-29T01:09:52;18.58;;;9.05;;
56242;SDS011;42155;53.096;23.226;2023-12-29T01:11:52;19.80;;;8.95;;
56242;SDS011;42155;53.096;23.226;2023-12-29T01:13:53;19.35;;;8.60;;
56242;SDS011;42155;53.096;23.226;2023-12-29T01:15:53;14.27;;;7.88;;
56242;SDS011;42155;53.096;23.226;2023-12-29T01:17:54;17.08;;;8.48;;
56242;SDS011;42155;53.096;23.226;2023-12-29T01:19:54;16.88;;;8.45;;
56242;SDS011;42155;53.096;23.226;2023-12-29T01:21:54;18.92;;;8.43;;
56242;SDS011;42155;53.096;23.226;2023-12-29T01:23:55;18.23;;;8.85;;
56242;SDS011;42155;53.096;23.226;2023-12-29T01:25:55;18.27;;;8.40;;
56242;SDS011;42155;53.096;23.226;2023-12-29T01:27:56;17.83;;;7.70;;
56242;SDS011;42155;53.096;23.226;2023-12-29T01:29:56;16.65;;;7.80;;
56242;SDS011;42155;53.096;23.226;2023-12-29T01:31:57;17.23;;;8.13;;
56242;SDS011;42155;53.096;23.226;2023-12-29T01:33:57;18.42;;;8.02;;
56242;SDS011;42155;53.096;23.226;2023-12-29T01:35:58;17.73;;;8.27;;
56242;SDS011;42155;53.096;23.226;2023-12-29T01:37:58;21.23;;;9.07;;
56242;SDS011;42155;53.096;23.226;2023-12-29T01:39:59;17.80;;;8.77;;
56242;SDS011;42155;53.096;23.226;2023-12-29T01:41:59;16.63;;;8.30;;
56242;SDS011;42155;53.096;23.226;2023-12-29T01:46:00;15.60;;;7.72;;
56242;SDS011;42155;53.096;23.226;2023-12-29T01:48:00;21.13;;;9.25;;
56242;SDS011;42155;53.096;23.226;2023-12-29T01:50:01;18.50;;;8.23;;
56242;SDS011;42155;53.096;23.226;2023-12-29T01:52:02;21.05;;;8.45;;
56242;SDS011;42155;53.096;23.226;2023-12-29T01:54:03;14.98;;;7.57;;
56242;SDS011;42155;53.096;23.226;2023-12-29T01:56:03;16.25;;;8.40;;
56242;SDS011;42155;53.096;23.226;2023-12-29T01:58:04;17.73;;;8.13;;
56242;SDS011;42155;53.096;23.226;2023-12-29T02:00:05;19.70;;;8.85;;
56242;SDS011;42155;53.096;23.226;2023-12-29T02:02:06;19.45;;;8.77;;
56242;SDS011;42155;53.096;23.226;2023-12-29T02:04:07;17.40;;;8.95;;
56242;SDS011;42155;53.096;23.226;2023-12-29T02:06:08;16.67;;;7.70;;
56242;SDS011;42155;53.096;23.226;2023-12-29T02:08:10;15.07;;;8.18;;
56242;SDS011;42155;53.096;23.226;2023-12-29T02:10:11;16.55;;;8.30;;
56242;SDS011;42155;53.096;23.226;2023-12-29T02:12:11;17.92;;;8.23;;
56242;SDS011;42155;53.096;23.226;2023-12-29T02:14:12;15.07;;;7.47;;
56242;SDS011;42155;53.096;23.226;2023-12-29T02:16:22;16.25;;;8.10;;
56242;SDS011;42155;53.096;23.226;2023-12-29T02:18:25;13.38;;;7.47;;
56242;SDS011;42155;53.096;23.226;2023-12-29T02:20:29;21.75;;;8.68;;
56242;SDS011;42155;53.096;23.226;2023-12-29T02:22:30;17.15;;;8.23;;
56242;SDS011;42155;53.096;23.226;2023-12-29T02:24:30;16.70;;;7.85;;
56242;SDS011;42155;53.096;23.226;2023-12-29T02:26:30;16.98;;;7.97;;
56242;SDS011;42155;53.096;23.226;2023-12-29T02:28:34;18.38;;;7.95;;
56242;SDS011;42155;53.096;23.226;2023-12-29T02:32:45;16.88;;;8.23;;
56242;SDS011;42155;53.096;23.226;2023-12-29T02:34:47;19.92;;;7.90;;
56242;SDS011;42155;53.096;23.226;2023-12-29T02:36:50;18.63;;;7.70;;
56242;SDS011;42155;53.096;23.226;2023-12-29T02:38:51;16.85;;;8.07;;
56242;SDS011;42155;53.096;23.226;2023-12-29T02:40:52;18.77;;;8.27;;
56242;SDS011;42155;53.096;23.226;2023-12-29T02:42:52;19.23;;;7.78;;
56242;SDS011;42155;53.096;23.226;2023-12-29T02:44:53;17.10;;;8.05;;
56242;SDS011;42155;53.096;23.226;2023-12-29T02:46:53;18.23;;;8.13;;
56242;SDS011;42155;53.096;23.226;2023-12-29T02:48:54;17.58;;;8.02;;
56242;SDS011;42155;53.096;23.226;2023-12-29T02:50:54;16.75;;;7.85;;
56242;SDS011;42155;53.096;23.226;2023-12-29T02:52:54;18.08;;;8.15;;
56242;SDS011;42155;53.096;23.226;2023-12-29T02:54:55;17.60;;;8.07;;
56242;SDS011;42155;53.096;23.226;2023-12-29T02:56:55;13.85;;;7.00;;
56242;SDS011;42155;53.096;23.226;2023-12-29T02:58:56;14.35;;;7.38;;
56242;SDS011;42155;53.096;23.226;2023-12-29T03:00:56;17.80;;;8.02;;
56242;SDS011;42155;53.096;23.226;2023-12-29T03:02:56;16.58;;;7.88;;
56242;SDS011;42155;53.096;23.226;2023-12-29T03:04:57;16.00;;;8.05;;
56242;SDS011;42155;53.096;23.226;2023-12-29T03:06:57;18.63;;;8.93;;
56242;SDS011;42155;53.096;23.226;2023-12-29T03:08:58;15.40;;;7.07;;
56242;SDS011;42155;53.096;23.226;2023-12-29T03:10:58;14.75;;;7.68;;
56242;SDS011;42155;53.096;23.226;2023-12-29T03:12:59;14.50;;;7.30;;
56242;SDS011;42155;53.096;23.226;2023-12-29T03:14:59;14.55;;;7.40;;
56242;SDS011;42155;53.096;23.226;2023-12-29T03:17:00;14.95;;;7.43;;
56242;SDS011;42155;53.096;23.226;2023-12-29T03:19:01;14.48;;;7.03;;
56242;SDS011;42155;53.096;23.226;2023-12-29T03:21:02;15.55;;;7.70;;
56242;SDS011;42155;53.096;23.226;2023-12-29T03:23:02;14.90;;;7.00;;
56242;SDS011;42155;53.096;23.226;2023-12-29T03:25:03;14.30;;;7.55;;
56242;SDS011;42155;53.096;23.226;2023-12-29T03:27:04;16.00;;;7.97;;
56242;SDS011;42155;53.096;23.226;2023-12-29T03:29:05;17.80;;;7.90;;
56242;SDS011;42155;53.096;23.226;2023-12-29T03:31:05;15.05;;;7.38;;
56242;SDS011;42155;53.096;23.226;2023-12-29T03:33:06;15.60;;;7.63;;
56242;SDS011;42155;53.096;23.226;2023-12-29T03:35:06;15.90;;;7.50;;
56242;SDS011;42155;53.096;23.226;2023-12-29T03:37:07;19.15;;;7.78;;
56242;SDS011;42155;53.096;23.226;2023-12-29T03:39:07;16.65;;;7.47;;
56242;SDS011;42155;53.096;23.226;2023-12-29T03:41:07;15.05;;;7.78;;
56242;SDS011;42155;53.096;23.226;2023-12-29T03:43:08;17.90;;;7.63;;
56242;SDS011;42155;53.096;23.226;2023-12-29T03:45:08;16.50;;;7.88;;
56242;SDS011;42155;53.096;23.226;2023-12-29T03:47:11;19.77;;;7.60;;
56242;SDS011;42155;53.096;23.226;2023-12-29T03:49:12;18.38;;;7.80;;
56242;SDS011;42155;53.096;23.226;2023-12-29T03:51:13;18.10;;;7.85;;
56242;SDS011;42155;53.096;23.226;2023-12-29T03:53:14;16.92;;;7.43;;
56242;SDS011;42155;53.096;23.226;2023-12-29T03:55:15;14.80;;;7.00;;
56242;SDS011;42155;53.096;23.226;2023-12-29T03:57:15;17.55;;;7.78;;
56242;SDS011;42155;53.096;23.226;2023-12-29T03:59:16;12.77;;;6.80;;
56242;SDS011;42155;53.096;23.226;2023-12-29T04:01:17;16.20;;;6.85;;
56242;SDS011;42155;53.096;23.226;2023-12-29T04:03:17;16.55;;;6.95;;
56242;SDS011;42155;53.096;23.226;2023-12-29T04:05:18;15.57;;;7.90;;
56242;SDS011;42155;53.096;23.226;2023-12-29T04:07:19;19.08;;;7.20;;
56242;SDS011;42155;53.096;23.226;2023-12-29T04:09:20;15.38;;;7.68;;
56242;SDS011;42155;53.096;23.226;2023-12-29T04:11:20;16.25;;;7.25;;
56242;SDS011;42155;53.096;23.226;2023-12-29T04:13:21;13.85;;;6.90;;
56242;SDS011;42155;53.096;23.226;2023-12-29T04:15:22;14.25;;;7.55;;
56242;SDS011;42155;53.096;23.226;2023-12-29T04:17:24;13.93;;;6.38;;
56242;SDS011;42155;53.096;23.226;2023-12-29T04:19:32;16.47;;;6.93;;
56242;SDS011;42155;53.096;23.226;2023-12-29T04:21:33;14.68;;;7.35;;
56242;SDS011;42155;53.096;23.226;2023-12-29T04:23:33;17.42;;;7.20;;
56242;SDS011;42155;53.096;23.226;2023-12-29T04:25:33;14.73;;;6.85;;
56242;SDS011;42155;53.096;23.226;2023-12-29T04:27:34;15.07;;;6.55;;
56242;SDS011;42155;53.096;23.226;2023-12-29T04:29:35;13.43;;;6.80;;
56242;SDS011;42155;53.096;23.226;2023-12-29T04:31:35;17.23;;;7.10;;
56242;SDS011;42155;53.096;23.226;2023-12-29T04:33:40;15.10;;;7.32;;
56242;SDS011;42155;53.096;23.226;2023-12-29T04:35:41;15.18;;;6.97;;
56242;SDS011;42155;53.096;23.226;2023-12-29T04:37:44;15.77;;;7.57;;
56242;SDS011;42155;53.096;23.226;2023-12-29T04:39:45;16.67;;;7.93;;
56242;SDS011;42155;53.096;23.226;2023-12-29T04:41:46;16.73;;;6.55;;
56242;SDS011;42155;53.096;23.226;2023-12-29T04:43:46;15.25;;;7.05;;
56242;SDS011;42155;53.096;23.226;2023-12-29T04:45:47;11.57;;;6.97;;
56242;SDS011;42155;53.096;23.226;2023-12-29T04:47:47;13.90;;;7.25;;
56242;SDS011;42155;53.096;23.226;2023-12-29T04:49:47;14.77;;;7.07;;
56242;SDS011;42155;53.096;23.226;2023-12-29T04:51:49;14.93;;;7.03;;
56242;SDS011;42155;53.096;23.226;2023-12-29T04:53:50;14.20;;;6.90;;
56242;SDS011;42155;53.096;23.226;2023-12-29T04:55:50;13.63;;;6.50;;
56242;SDS011;42155;53.096;23.226;2023-12-29T04:57:51;15.82;;;7.40;;
56242;SDS011;42155;53.096;23.226;2023-12-29T04:59:51;14.20;;;6.88;;
56242;SDS011;42155;53.096;23.226;2023-12-29T05:01:52;17.73;;;7.38;;
56242;SDS011;42155;53.096;23.226;2023-12-29T05:03:52;14.20;;;6.80;;
56242;SDS011;42155;53.096;23.226;2023-12-29T05:05:52;15.40;;;7.30;;
56242;SDS011;42155;53.096;23.226;2023-12-29T05:07:53;14.23;;;7.40;;
56242;SDS011;42155;53.096;23.226;2023-12-29T05:09:54;14.38;;;6.75;;
56242;SDS011;42155;53.096;23.226;2023-12-29T05:11:54;13.82;;;6.85;;
56242;SDS011;42155;53.096;23.226;2023-12-29T05:13:55;14.05;;;7.15;;
56242;SDS011;42155;53.096;23.226;2023-12-29T05:15:57;14.25;;;7.30;;
56242;SDS011;42155;53.096;23.226;2023-12-29T05:17:58;16.13;;;7.43;;
56242;SDS011;42155;53.096;23.226;2023-12-29T05:19:58;19.75;;;7.22;;
56242;SDS011;42155;53.096;23.226;2023-12-29T05:21:58;18.05;;;8.02;;
56242;SDS011;42155;53.096;23.226;2023-12-29T05:23:59;17.33;;;8.65;;
56242;SDS011;42155;53.096;23.226;2023-12-29T05:25:59;18.67;;;8.57;;
56242;SDS011;42155;53.096;23.226;2023-12-29T05:28:00;16.77;;;7.78;;
56242;SDS011;42155;53.096;23.226;2023-12-29T05:30:01;13.75;;;6.70;;
56242;SDS011;42155;53.096;23.226;2023-12-29T05:32:02;15.68;;;6.82;;
56242;SDS011;42155;53.096;23.226;2023-12-29T05:34:03;17.00;;;7.20;;
56242;SDS011;42155;53.096;23.226;2023-12-29T05:36:07;12.55;;;6.90;;
56242;SDS011;42155;53.096;23.226;2023-12-29T05:38:08;14.95;;;7.38;;
56242;SDS011;42155;53.096;23.226;2023-12-29T05:40:09;16.67;;;6.63;;
56242;SDS011;42155;53.096;23.226;2023-12-29T05:42:10;14.85;;;7.20;;
56242;SDS011;42155;53.096;23.226;2023-12-29T05:44:10;14.05;;;7.25;;
56242;SDS011;42155;53.096;23.226;2023-12-29T05:46:11;13.27;;;6.72;;
56242;SDS011;42155;53.096;23.226;2023-12-29T05:48:12;11.40;;;5.80;;
56242;SDS011;42155;53.096;23.226;2023-12-29T05:50:12;14.98;;;7.00;;
56242;SDS011;42155;53.096;23.226;2023-12-29T05:52:13;14.45;;;7.45;;
56242;SDS011;42155;53.096;23.226;2023-12-29T05:54:13;13.52;;;6.72;;
56242;SDS011;42155;53.096;23.226;2023-12-29T05:56:14;15.23;;;7.53;;
56242;SDS011;42155;53.096;23.226;2023-12-29T05:58:19;18.90;;;7.35;;
56242;SDS011;42155;53.096;23.226;2023-12-29T06:00:21;14.30;;;6.63;;
56242;SDS011;42155;53.096;23.226;2023-12-29T06:02:21;16.50;;;7.10;;
56242;SDS011;42155;53.096;23.226;2023-12-29T06:04:22;15.93;;;7.10;;
56242;SDS011;42155;53.096;23.226;2023-12-29T06:06:22;14.43;;;6.88;;
56242;SDS011;42155;53.096;23.226;2023-12-29T06:08:23;14.68;;;7.05;;
56242;SDS011;42155;53.096;23.226;2023-12-29T06:10:23;17.35;;;7.03;;
56242;SDS011;42155;53.096;23.226;2023-12-29T06:12:24;14.15;;;6.97;;
56242;SDS011;42155;53.096;23.226;2023-12-29T06:14:25;13.88;;;7.00;;
56242;SDS011;42155;53.096;23.226;2023-12-29T06:16:25;19.35;;;8.02;;
56242;SDS011;42155;53.096;23.226;2023-12-29T06:18:26;15.70;;;8.10;;
56242;SDS011;42155;53.096;23.226;2023-12-29T06:20:26;12.30;;;6.78;;
56242;SDS011;42155;53.096;23.226;2023-12-29T06:22:27;15.73;;;7.32;;
56242;SDS011;42155;53.096;23.226;2023-12-29T06:24:27;15.57;;;7.70;;
56242;SDS011;42155;53.096;23.226;2023-12-29T06:26:28;13.40;;;7.13;;
56242;SDS011;42155;53.096;23.226;2023-12-29T06:28:30;14.02;;;7.22;;
56242;SDS011;42155;53.096;23.226;2023-12-29T06:30:31;13.48;;;6.53;;
56242;SDS011;42155;53.096;23.226;2023-12-29T06:32:31;13.60;;;6.97;;
56242;SDS011;42155;53.096;23.226;2023-12-29T06:34:32;14.68;;;7.30;;
56242;SDS011;42155;53.096;23.226;2023-12-29T06:36:33;14.75;;;7.57;;
56242;SDS011;42155;53.096;23.226;2023-12-29T06:38:33;13.48;;;7.18;;
56242;SDS011;42155;53.096;23.226;2023-12-29T06:40:34;16.30;;;7.90;;
56242;SDS011;42155;53.096;23.226;2023-12-29T06:42:35;15.43;;;7.38;;
56242;SDS011;42155;53.096;23.226;2023-12-29T06:44:35;13.90;;;7.25;;
56242;SDS011;42155;53.096;23.226;2023-12-29T06:46:39;16.17;;;6.88;;
56242;SDS011;42155;53.096;23.226;2023-12-29T06:48:42;13.68;;;7.30;;
56242;SDS011;42155;53.096;23.226;2023-12-29T06:50:43;14.48;;;7.18;;
56242;SDS011;42155;53.096;23.226;2023-12-29T06:52:43;15.13;;;7.72;;
56242;SDS011;42155;53.096;23.226;2023-12-29T06:54:43;16.35;;;8.00;;
56242;SDS011;42155;53.096;23.226;2023-12-29T06:56:44;14.07;;;7.53;;
56242;SDS011;42155;53.096;23.226;2023-12-29T06:58:45;14.25;;;7.43;;
56242;SDS011;42155;53.096;23.226;2023-12-29T07:00:46;14.20;;;7.32;;
56242;SDS011;42155;53.096;23.226;2023-12-29T07:02:47;14.57;;;7.57;;
56242;SDS011;42155;53.096;23.226;2023-12-29T07:04:48;20.38;;;9.07;;
56242;SDS011;42155;53.096;23.226;2023-12-29T07:06:48;39.00;;;14.88;;
56242;SDS011;42155;53.096;23.226;2023-12-29T07:08:49;30.75;;;11.25;;
56242;SDS011;42155;53.096;23.226;2023-12-29T07:10:49;40.65;;;13.82;;
56242;SDS011;42155;53.096;23.226;2023-12-29T07:12:51;53.20;;;16.63;;
56242;SDS011;42155;53.096;23.226;2023-12-29T07:14:52;52.10;;;17.90;;
56242;SDS011;42155;53.096;23.226;2023-12-29T07:16:53;49.70;;;16.58;;
56242;SDS011;42155;53.096;23.226;2023-12-29T07:18:56;39.63;;;16.05;;
56242;SDS011;42155;53.096;23.226;2023-12-29T07:20:57;32.97;;;12.02;;
56242;SDS011;42155;53.096;23.226;2023-12-29T07:22:57;22.25;;;10.65;;
56242;SDS011;42155;53.096;23.226;2023-12-29T07:25:07;24.52;;;11.23;;
56242;SDS011;42155;53.096;23.226;2023-12-29T07:27:12;21.23;;;10.07;;
56242;SDS011;42155;53.096;23.226;2023-12-29T07:29:13;18.38;;;8.88;;
56242;SDS011;42155;53.096;23.226;2023-12-29T07:31:14;19.40;;;8.73;;
56242;SDS011;42155;53.096;23.226;2023-12-29T07:33:14;22.92;;;11.40;;
56242;SDS011;42155;53.096;23.226;2023-12-29T07:35:16;22.92;;;9.18;;
56242;SDS011;42155;53.096;23.226;2023-12-29T07:37:20;19.25;;;9.68;;
56242;SDS011;42155;53.096;23.226;2023-12-29T07:39:20;17.05;;;8.75;;
56242;SDS011;42155;53.096;23.226;2023-12-29T07:41:21;15.52;;;8.57;;
56242;SDS011;42155;53.096;23.226;2023-12-29T07:43:21;20.52;;;9.65;;
56242;SDS011;42155;53.096;23.226;2023-12-29T07:45:22;16.27;;;8.60;;
56242;SDS011;42155;53.096;23.226;2023-12-29T07:47:22;17.75;;;8.63;;
56242;SDS011;42155;53.096;23.226;2023-12-29T07:49:23;20.50;;;8.93;;
56242;SDS011;42155;53.096;23.226;2023-12-29T07:51:23;17.08;;;8.80;;
56242;SDS011;42155;53.096;23.226;2023-12-29T07:53:24;18.63;;;9.50;;
56242;SDS011;42155;53.096;23.226;2023-12-29T07:55:26;17.80;;;8.40;;
56242;SDS011;42155;53.096;23.226;2023-12-29T07:57:26;20.92;;;9.35;;
56242;SDS011;42155;53.096;23.226;2023-12-29T07:59:27;18.33;;;8.85;;
56242;SDS011;42155;53.096;23.226;2023-12-29T08:01:27;18.80;;;9.93;;
56242;SDS011;42155;53.096;23.226;2023-12-29T08:03:28;21.10;;;9.35;;
56242;SDS011;42155;53.096;23.226;2023-12-29T08:05:29;18.13;;;8.90;;
56242;SDS011;42155;53.096;23.226;2023-12-29T08:07:30;17.77;;;7.95;;
56242;SDS011;42155;53.096;23.226;2023-12-29T08:09:30;15.20;;;8.23;;
56242;SDS011;42155;53.096;23.226;2023-12-29T08:11:31;16.95;;;8.32;;
56242;SDS011;42155;53.096;23.226;2023-12-29T08:13:32;13.77;;;7.53;;
56242;SDS011;42155;53.096;23.226;2023-12-29T08:15:32;14.20;;;7.70;;
56242;SDS011;42155;53.096;23.226;2023-12-29T08:17:33;16.65;;;8.52;;
56242;SDS011;42155;53.096;23.226;2023-12-29T08:19:33;16.52;;;8.27;;
56242;SDS011;42155;53.096;23.226;2023-12-29T08:21:34;16.50;;;7.88;;
56242;SDS011;42155;53.096;23.226;2023-12-29T08:23:34;14.77;;;7.57;;
56242;SDS011;42155;53.096;23.226;2023-12-29T08:25:35;14.88;;;7.78;;
56242;SDS011;42155;53.096;23.226;2023-12-29T08:27:35;17.15;;;7.63;;
56242;SDS011;42155;53.096;23.226;2023-12-29T08:29:36;18.38;;;9.23;;
56242;SDS011;42155;53.096;23.226;2023-12-29T08:31:37;14.38;;;7.90;;
56242;SDS011;42155;53.096;23.226;2023-12-29T08:33:38;18.02;;;8.10;;
56242;SDS011;42155;53.096;23.226;2023-12-29T08:35:41;16.75;;;8.25;;
56242;SDS011;42155;53.096;23.226;2023-12-29T08:37:42;15.73;;;7.57;;
56242;SDS011;42155;53.096;23.226;2023-12-29T08:39:43;17.35;;;8.73;;
56242;SDS011;42155;53.096;23.226;2023-12-29T08:41:43;20.83;;;8.30;;
56242;SDS011;42155;53.096;23.226;2023-12-29T08:43:43;15.43;;;7.85;;
56242;SDS011;42155;53.096;23.226;2023-12-29T08:45:49;14.98;;;7.30;;
56242;SDS011;42155;53.096;23.226;2023-12-29T08:47:52;15.23;;;7.90;;
56242;SDS011;42155;53.096;23.226;2023-12-29T08:49:57;15.63;;;8.18;;
56242;SDS011;42155;53.096;23.226;2023-12-29T08:51:57;13.45;;;7.50;;
56242;SDS011;42155;53.096;23.226;2023-12-29T08:54:01;14.50;;;7.05;;
56242;SDS011;42155;53.096;23.226;2023-12-29T08:56:01;15.88;;;7.47;;
56242;SDS011;42155;53.096;23.226;2023-12-29T08:58:02;16.05;;;7.72;;
56242;SDS011;42155;53.096;23.226;2023-12-29T09:00:03;19.25;;;7.88;;
56242;SDS011;42155;53.096;23.226;2023-12-29T09:02:05;13.10;;;7.38;;
56242;SDS011;42155;53.096;23.226;2023-12-29T09:04:06;14.50;;;7.10;;
56242;SDS011;42155;53.096;23.226;2023-12-29T09:06:07;19.25;;;8.35;;
56242;SDS011;42155;53.096;23.226;2023-12-29T09:08:08;14.60;;;6.60;;
56242;SDS011;42155;53.096;23.226;2023-12-29T09:10:09;13.88;;;7.18;;
56242;SDS011;42155;53.096;23.226;2023-12-29T09:12:09;15.95;;;7.63;;
56242;SDS011;42155;53.096;23.226;2023-12-29T09:14:10;15.05;;;7.18;;
56242;SDS011;42155;53.096;23.226;2023-12-29T09:16:14;13.25;;;7.00;;
56242;SDS011;42155;53.096;23.226;2023-12-29T09:18:14;12.52;;;6.65;;
56242;SDS011;42155;53.096;23.226;2023-12-29T09:20:15;16.95;;;7.47;;
56242;SDS011;42155;53.096;23.226;2023-12-29T09:22:16;15.15;;;7.25;;
56242;SDS011;42155;53.096;23.226;2023-12-29T09:24:16;15.25;;;7.05;;
56242;SDS011;42155;53.096;23.226;2023-12-29T09:26:17;11.73;;;6.55;;
56242;SDS011;42155;53.096;23.226;2023-12-29T09:28:18;12.18;;;6.50;;
56242;SDS011;42155;53.096;23.226;2023-12-29T09:30:18;14.45;;;6.88;;
56242;SDS011;42155;53.096;23.226;2023-12-29T09:32:22;15.23;;;6.78;;
56242;SDS011;42155;53.096;23.226;2023-12-29T09:34:22;13.82;;;7.18;;
56242;SDS011;42155;53.096;23.226;2023-12-29T09:36:23;14.25;;;6.85;;
56242;SDS011;42155;53.096;23.226;2023-12-29T09:38:24;13.43;;;6.95;;
56242;SDS011;42155;53.096;23.226;2023-12-29T09:40:25;12.25;;;6.68;;
56242;SDS011;42155;53.096;23.226;2023-12-29T09:42:27;12.65;;;6.90;;
56242;SDS011;42155;53.096;23.226;2023-12-29T09:44:30;12.13;;;6.93;;
56242;SDS011;42155;53.096;23.226;2023-12-29T09:46:31;12.30;;;6.40;;
56242;SDS011;42155;53.096;23.226;2023-12-29T09:48:38;12.20;;;6.15;;
56242;SDS011;42155;53.096;23.226;2023-12-29T09:50:41;14.63;;;6.55;;
56242;SDS011;42155;53.096;23.226;2023-12-29T09:52:43;15.73;;;7.30;;
56242;SDS011;42155;53.096;23.226;2023-12-29T09:54:51;13.10;;;7.03;;
56242;SDS011;42155;53.096;23.226;2023-12-29T09:56:57;11.13;;;5.78;;
56242;SDS011;42155;53.096;23.226;2023-12-29T09:58:59;13.02;;;6.30;;
56242;SDS011;42155;53.096;23.226;2023-12-29T10:01:02;15.23;;;6.80;;
56242;SDS011;42155;53.096;23.226;2023-12-29T10:03:04;12.57;;;6.07;;
56242;SDS011;42155;53.096;23.226;2023-12-29T10:05:06;15.88;;;6.55;;
56242;SDS011;42155;53.096;23.226;2023-12-29T10:07:07;17.98;;;7.47;;
56242;SDS011;42155;53.096;23.226;2023-12-29T10:09:10;12.90;;;5.97;;
56242;SDS011;42155;53.096;23.226;2023-12-29T10:11:15;12.13;;;6.63;;
56242;SDS011;42155;53.096;23.226;2023-12-29T10:13:21;13.63;;;6.43;;
56242;SDS011;42155;53.096;23.226;2023-12-29T10:15:44;11.13;;;5.85;;
56242;SDS011;42155;53.096;23.226;2023-12-29T10:20:27;13.57;;;6.70;;
56242;SDS011;42155;53.096;23.226;2023-12-29T10:24:35;12.02;;;6.63;;
56242;SDS011;42155;53.096;23.226;2023-12-29T10:26:36;14.80;;;6.90;;
56242;SDS011;42155;53.096;23.226;2023-12-29T10:28:40;13.25;;;6.60;;
56242;SDS011;42155;53.096;23.226;2023-12-29T10:30:41;12.70;;;6.80;;
56242;SDS011;42155;53.096;23.226;2023-12-29T10:32:41;14.27;;;7.32;;
56242;SDS011;42155;53.096;23.226;2023-12-29T10:34:42;13.20;;;6.38;;
56242;SDS011;42155;53.096;23.226;2023-12-29T10:36:47;12.07;;;6.30;;
56242;SDS011;42155;53.096;23.226;2023-12-29T10:38:51;13.38;;;7.10;;
56242;SDS011;42155;53.096;23.226;2023-12-29T10:43:21;14.63;;;7.15;;
56242;SDS011;42155;53.096;23.226;2023-12-29T10:45:24;13.35;;;7.00;;
56242;SDS011;42155;53.096;23.226;2023-12-29T10:47:27;12.55;;;6.60;;
56242;SDS011;42155;53.096;23.226;2023-12-29T10:49:28;12.57;;;6.40;;
56242;SDS011;42155;53.096;23.226;2023-12-29T10:51:29;12.43;;;6.22;;
56242;SDS011;42155;53.096;23.226;2023-12-29T10:53:32;12.88;;;6.65;;
56242;SDS011;42155;53.096;23.226;2023-12-29T10:55:33;23.35;;;6.95;;
56242;SDS011;42155;53.096;23.226;2023-12-29T10:57:38;10.20;;;5.75;;
56242;SDS011;42155;53.096;23.226;2023-12-29T10:59:39;15.35;;;6.85;;
56242;SDS011;42155;53.096;23.226;2023-12-29T11:01:40;13.43;;;6.45;;
56242;SDS011;42155;53.096;23.226;2023-12-29T11:03:43;13.93;;;6.40;;
56242;SDS011;42155;53.096;23.226;2023-12-29T11:05:44;14.73;;;6.50;;
56242;SDS011;42155;53.096;23.226;2023-12-29T11:07:47;14.32;;;7.10;;
56242;SDS011;42155;53.096;23.226;2023-12-29T11:09:47;13.13;;;6.38;;
56242;SDS011;42155;53.096;23.226;2023-12-29T11:11:50;12.75;;;6.72;;
56242;SDS011;42155;53.096;23.226;2023-12-29T11:13:53;11.52;;;5.90;;
56242;SDS011;42155;53.096;23.226;2023-12-29T11:15:54;11.18;;;6.38;;
56242;SDS011;42155;53.096;23.226;2023-12-29T11:17:55;13.68;;;6.57;;
56242;SDS011;42155;53.096;23.226;2023-12-29T11:19:57;12.65;;;6.70;;
56242;SDS011;42155;53.096;23.226;2023-12-29T11:21:59;13.10;;;6.20;;
56242;SDS011;42155;53.096;23.226;2023-12-29T11:24:01;15.65;;;6.68;;
56242;SDS011;42155;53.096;23.226;2023-12-29T11:26:08;12.73;;;6.47;;
56242;SDS011;42155;53.096;23.226;2023-12-29T11:28:10;12.00;;;6.00;;
56242;SDS011;42155;53.096;23.226;2023-12-29T11:30:14;13.80;;;6.70;;
56242;SDS011;42155;53.096;23.226;2023-12-29T11:32:18;13.73;;;6.70;;
56242;SDS011;42155;53.096;23.226;2023-12-29T11:34:27;15.75;;;7.28;;
56242;SDS011;42155;53.096;23.226;2023-12-29T11:36:39;14.52;;;6.47;;
56242;SDS011;42155;53.096;23.226;2023-12-29T11:38:57;12.30;;;5.78;;
56242;SDS011;42155;53.096;23.226;2023-12-29T11:43:15;10.45;;;5.13;;
56242;SDS011;42155;53.096;23.226;2023-12-29T11:45:24;11.10;;;5.82;;
56242;SDS011;42155;53.096;23.226;2023-12-29T11:47:35;12.70;;;6.30;;
56242;SDS011;42155;53.096;23.226;2023-12-29T11:51:59;12.20;;;5.60;;
56242;SDS011;42155;53.096;23.226;2023-12-29T11:54:02;10.55;;;6.05;;
56242;SDS011;42155;53.096;23.226;2023-12-29T11:56:04;11.68;;;6.07;;
56242;SDS011;42155;53.096;23.226;2023-12-29T12:00:48;10.73;;;5.75;;
56242;SDS011;42155;53.096;23.226;2023-12-29T12:02:48;9.50;;;5.18;;
56242;SDS011;42155;53.096;23.226;2023-12-29T12:04:49;10.18;;;5.15;;
56242;SDS011;42155;53.096;23.226;2023-12-29T12:06:49;10.63;;;5.22;;
56242;SDS011;42155;53.096;23.226;2023-12-29T12:08:50;9.70;;;5.32;;